createdAt,value
2022-12-13T00:03:02.045Z,31.52
2022-12-13T00:08:03.700Z,34.65
2022-12-13T00:13:05.587Z,34.65
2022-12-13T00:18:06.988Z,33.33
2022-12-13T00:23:08.334Z,27.67
2022-12-13T00:28:10.641Z,31.80
2022-12-13T00:33:12.024Z,32.90
2022-12-13T00:38:13.381Z,36.30
2022-12-13T00:43:14.730Z,35.53
2022-12-13T00:48:16.080Z,38.75
2022-12-13T00:53:17.530Z,37.08
2022-12-13T00:58:19.005Z,39.13
2022-12-13T01:03:20.525Z,36.28
2022-12-13T01:08:22.151Z,33.90
2022-12-13T01:13:23.636Z,36.70
2022-12-13T01:18:25.101Z,39.17
2022-12-13T01:23:27.900Z,38.22
2022-12-13T01:28:29.297Z,34.60
2022-12-13T01:33:31.502Z,40.05
2022-12-13T01:38:37.673Z,36.90
2022-12-13T01:43:39.526Z,36.97
2022-12-13T01:48:47.610Z,34.58
2022-12-13T01:53:50.520Z,37.42
2022-12-13T01:58:55.148Z,37.25
2022-12-13T02:03:56.509Z,33.50
2022-12-13T02:08:58.040Z,31.25
2022-12-13T02:13:59.461Z,38.90
2022-12-13T02:19:43.005Z,35.00
2022-12-13T02:24:59.476Z,33.28
2022-12-13T02:30:39.895Z,33.97
2022-12-13T02:35:53.010Z,34.40
2022-12-13T02:41:05.949Z,36.88
2022-12-13T02:46:09.620Z,31.77
2022-12-13T02:51:12.544Z,33.25
2022-12-13T02:56:14.238Z,33.70
2022-12-13T03:01:32.033Z,32.47
2022-12-13T03:06:45.125Z,32.08
2022-12-13T03:12:11.646Z,32.50
2022-12-13T03:17:16.511Z,33.80
2022-12-13T03:22:17.887Z,32.45
2022-12-13T03:27:19.228Z,35.42
2022-12-13T03:32:20.588Z,34.17
2022-12-13T03:37:22.271Z,36.20
2022-12-13T03:42:23.720Z,41.22
2022-12-13T03:47:25.113Z,37.90
2022-12-13T03:52:26.593Z,35.20
2022-12-13T03:57:28.162Z,37.40
2022-12-13T04:02:30.666Z,39.70
2022-12-13T04:07:34.144Z,35.28
2022-12-13T04:12:36.000Z,32.15
2022-12-13T04:17:37.817Z,35.10
2022-12-13T04:22:39.259Z,32.28
2022-12-13T04:27:40.655Z,34.85
2022-12-13T04:32:42.054Z,40.83
2022-12-13T04:37:44.406Z,44.35
2022-12-13T04:42:45.797Z,37.40
2022-12-13T04:47:47.167Z,39.45
2022-12-13T04:52:48.582Z,45.10
2022-12-13T04:57:49.998Z,38.47
2022-12-13T05:02:51.390Z,42.40
2022-12-13T05:07:52.814Z,34.22
2022-12-13T05:12:54.163Z,37.47
2022-12-13T05:17:59.315Z,37.58
2022-12-13T05:23:01.576Z,41.22
2022-12-13T05:28:26.933Z,36.83
2022-12-13T05:33:25.716Z,39.67
2022-12-13T05:38:27.539Z,37.47
2022-12-13T05:43:41.944Z,39.95
2022-12-13T05:48:44.933Z,37.80
2022-12-13T05:53:51.584Z,44.47
2022-12-13T05:58:54.744Z,40.88
2022-12-13T06:03:56.207Z,42.13
2022-12-13T06:08:59.511Z,34.90
2022-12-13T06:14:01.468Z,35.13
2022-12-13T06:19:04.684Z,37.58
2022-12-13T06:24:06.824Z,34.78
2022-12-13T06:29:08.267Z,37.00
2022-12-13T06:34:14.795Z,38.50
2022-12-13T06:39:17.106Z,35.50
2022-12-13T06:44:18.452Z,31.63
2022-12-13T06:49:19.822Z,40.88
2022-12-13T06:54:23.687Z,33.20
2022-12-13T06:59:25.347Z,31.27
2022-12-13T07:04:29.843Z,31.67
2022-12-13T07:09:34.184Z,33.25
2022-12-13T07:14:41.114Z,32.65
2022-12-13T07:19:43.271Z,33.92
2022-12-13T07:24:44.993Z,31.92
2022-12-13T07:29:46.390Z,36.65
2022-12-13T07:34:47.771Z,32.50
2022-12-13T07:39:49.402Z,35.33
2022-12-13T07:44:50.777Z,33.47
2022-12-13T07:49:52.178Z,30.85
2022-12-13T07:54:53.515Z,36.35
2022-12-13T07:59:55.121Z,35.90
2022-12-13T08:04:56.529Z,32.15
2022-12-13T08:09:58.063Z,33.35
2022-12-13T08:14:59.424Z,35.05
2022-12-13T08:20:00.740Z,33.50
2022-12-13T08:25:02.092Z,34.75
2022-12-13T08:30:04.158Z,32.85
2022-12-13T08:35:06.003Z,37.33
2022-12-13T08:40:07.996Z,36.05
2022-12-13T08:45:10.008Z,33.75
2022-12-13T08:50:11.427Z,31.30
2022-12-13T08:55:14.300Z,32.92
2022-12-13T09:00:18.396Z,33.92
2022-12-13T09:05:34.198Z,35.35
2022-12-13T09:10:38.318Z,32.17
2022-12-13T09:15:51.007Z,32.58
2022-12-13T09:20:52.545Z,36.35
2022-12-13T09:26:05.491Z,28.58
2022-12-13T09:31:17.102Z,31.45
2022-12-13T09:36:21.402Z,31.83
2022-12-13T09:41:31.305Z,30.80
2022-12-13T09:46:44.705Z,30.20
2022-12-13T09:52:04.499Z,34.15
2022-12-13T09:57:32.837Z,31.88
2022-12-13T10:02:43.119Z,34.50
2022-12-13T10:07:44.681Z,31.30
2022-12-13T10:12:52.508Z,32.13
2022-12-13T10:17:55.210Z,27.48
2022-12-13T10:23:31.427Z,29.60
2022-12-13T10:28:26.298Z,27.63
2022-12-13T10:33:31.771Z,28.45
2022-12-13T10:38:41.594Z,29.05
2022-12-13T10:43:42.970Z,29.73
2022-12-13T10:48:50.517Z,25.35
2022-12-13T10:53:54.591Z,30.92
2022-12-13T10:59:26.726Z,29.25
2022-12-13T11:04:33.900Z,24.67
2022-12-13T11:09:38.538Z,27.02
2022-12-13T11:14:51.464Z,22.75
2022-12-13T11:19:57.478Z,26.30
2022-12-13T11:25:05.784Z,22.23
2022-12-13T11:30:19.102Z,27.52
2022-12-13T11:35:29.104Z,27.08
2022-12-13T11:40:41.459Z,23.65
2022-12-13T11:45:47.181Z,27.13
2022-12-13T11:50:52.476Z,20.65
2022-12-13T11:56:24.729Z,23.08
2022-12-13T12:01:32.189Z,22.38
2022-12-13T12:06:47.837Z,19.17
2022-12-13T12:12:00.161Z,21.30
2022-12-13T12:17:04.033Z,21.45
2022-12-13T12:22:14.087Z,21.75
2022-12-13T12:27:43.446Z,23.48
2022-12-13T12:32:54.168Z,17.70
2022-12-13T12:38:17.219Z,17.13
2022-12-13T12:43:38.753Z,19.15
2022-12-13T12:49:08.367Z,20.05
2022-12-13T12:54:31.968Z,19.55
2022-12-13T12:59:39.664Z,21.08
2022-12-13T13:04:47.626Z,20.88
2022-12-13T13:09:50.301Z,24.30
2022-12-13T13:14:56.165Z,21.17
2022-12-13T13:20:23.988Z,18.90
2022-12-13T13:25:33.311Z,19.33
2022-12-13T13:30:35.773Z,17.42
2022-12-13T13:35:43.749Z,23.88
2022-12-13T13:40:45.177Z,18.08
2022-12-13T13:45:49.328Z,27.35
2022-12-13T13:51:28.545Z,17.60
2022-12-13T13:57:07.054Z,18.85
2022-12-13T14:02:47.180Z,23.45
2022-12-13T14:07:54.461Z,27.33
2022-12-13T14:13:52.185Z,26.52
2022-12-13T14:19:21.676Z,20.10
2022-12-13T14:24:41.434Z,18.87
2022-12-13T14:29:48.473Z,21.50
2022-12-13T14:34:50.565Z,17.33
2022-12-13T14:39:52.041Z,19.08
2022-12-13T14:44:53.555Z,18.70
2022-12-13T14:49:55.416Z,16.88
2022-12-13T14:54:59.359Z,19.92
2022-12-13T15:00:20.720Z,19.38
2022-12-13T15:05:34.419Z,16.80
2022-12-13T15:10:42.081Z,23.63
2022-12-13T15:16:00.888Z,21.20
2022-12-13T15:21:02.719Z,22.17
2022-12-13T15:26:28.743Z,22.30
2022-12-13T15:31:34.341Z,21.07
2022-12-13T15:36:38.186Z,32.80
2022-12-13T15:41:46.081Z,25.17
2022-12-13T15:46:49.891Z,20.50
2022-12-13T15:52:00.578Z,20.60
2022-12-13T15:57:10.763Z,18.83
2022-12-13T16:07:25.472Z,19.57
2022-12-13T16:12:37.431Z,22.05
2022-12-13T16:17:40.893Z,26.52
2022-12-13T16:22:43.133Z,36.25
2022-12-13T16:27:45.686Z,24.55
2022-12-13T16:38:25.950Z,20.63
2022-12-13T16:43:34.220Z,21.10
2022-12-13T16:48:36.034Z,25.67
2022-12-13T16:53:37.569Z,22.02
2022-12-13T16:58:38.957Z,36.75
2022-12-13T17:03:40.930Z,37.55
2022-12-13T17:08:42.502Z,33.58
2022-12-13T17:13:43.977Z,31.90
2022-12-13T17:18:45.376Z,44.47
2022-12-13T17:23:46.798Z,20.75
2022-12-13T17:28:48.237Z,35.08
2022-12-13T17:33:49.901Z,45.20
2022-12-13T17:38:51.492Z,31.75
2022-12-13T17:43:52.884Z,29.60
2022-12-13T17:48:54.272Z,20.85
2022-12-13T17:53:55.639Z,23.88
2022-12-13T17:58:59.193Z,42.15
2022-12-13T18:04:00.580Z,24.23
2022-12-13T18:09:02.097Z,22.73
2022-12-13T18:14:05.744Z,22.23
2022-12-13T18:19:10.478Z,16.05
2022-12-13T18:24:12.332Z,16.27
2022-12-13T18:29:14.251Z,14.75
2022-12-13T18:34:15.686Z,19.52
2022-12-13T18:39:17.143Z,15.77
2022-12-13T18:44:18.589Z,18.75
2022-12-13T18:49:19.980Z,17.88
2022-12-13T18:54:21.438Z,15.00
2022-12-13T18:59:23.288Z,16.98
2022-12-13T19:04:24.664Z,18.02
2022-12-13T19:09:26.044Z,17.45
2022-12-13T19:14:28.324Z,15.63
2022-12-13T19:19:29.648Z,16.83
2022-12-13T19:24:31.057Z,17.33
2022-12-13T19:29:32.532Z,17.55
2022-12-13T19:34:34.534Z,14.75
2022-12-13T19:39:36.047Z,15.40
2022-12-13T19:44:37.455Z,16.05
2022-12-13T19:49:38.940Z,24.50
2022-12-13T19:54:40.371Z,18.08
2022-12-13T19:59:41.788Z,18.40
2022-12-13T20:04:43.353Z,16.02
2022-12-13T20:09:44.770Z,17.98
2022-12-13T20:14:46.180Z,18.15
2022-12-13T20:19:47.568Z,14.55
2022-12-13T20:24:50.058Z,17.52
2022-12-13T20:29:51.436Z,15.13
2022-12-13T20:34:55.120Z,17.80
2022-12-13T20:39:56.685Z,18.40
2022-12-13T20:44:58.085Z,16.80
2022-12-13T20:49:59.509Z,14.27
2022-12-13T20:55:00.896Z,18.08
2022-12-13T21:00:03.280Z,18.50
2022-12-13T21:05:04.931Z,17.88
2022-12-13T21:10:06.976Z,20.48
2022-12-13T21:15:08.876Z,21.08
2022-12-13T21:20:10.341Z,16.48
2022-12-13T21:25:11.722Z,15.65
2022-12-13T21:30:13.529Z,19.10
2022-12-13T21:35:14.931Z,16.40
2022-12-13T21:40:16.546Z,13.77
2022-12-13T21:45:17.976Z,18.75
2022-12-13T21:50:19.414Z,17.25
2022-12-13T22:00:43.800Z,16.60
2022-12-13T22:05:45.180Z,14.60
2022-12-13T22:10:46.512Z,15.55
2022-12-13T22:15:47.867Z,16.17
2022-12-13T22:20:57.109Z,12.70
2022-12-13T22:25:58.501Z,16.50
2022-12-13T22:30:59.882Z,15.20
2022-12-13T22:36:01.286Z,17.08
2022-12-13T22:41:06.123Z,14.50
2022-12-13T22:46:10.105Z,12.48
2022-12-13T22:51:14.208Z,13.50
2022-12-13T22:56:21.487Z,12.00
2022-12-13T23:01:28.674Z,12.55
2022-12-13T23:06:32.585Z,16.45
2022-12-13T23:11:34.540Z,13.98
2022-12-13T23:16:36.701Z,11.82
2022-12-13T23:21:38.538Z,13.18
2022-12-13T23:26:40.025Z,13.73
2022-12-13T23:31:42.890Z,15.13
2022-12-13T23:36:50.394Z,12.90
2022-12-13T23:41:51.789Z,11.48
2022-12-13T23:46:53.151Z,16.10
2022-12-13T23:51:54.525Z,12.52
2022-12-13T23:56:55.970Z,12.88
